首页
METAR-TAF:

METAR-TAF

机场 :

Cranwell, 英格兰

纬度: 53-02N, 经度: 000-30W, 海拔: 67米

当前天气观测

该预报发布于1小时和19分钟前的15:50 UTC
风速9节,风向西
温度 9°C
湿度 81%
气压 995 hPa
能见度10公里或以上
少量云层高于2000英尺, 积雨云.
多云层高于6000英尺
附近有阵雨

METAR: EGYD 051550Z 28009KT 9999 VCSH FEW020CB BKN060 09/06 Q0995 RMK BLU

时间: 18:09 (17:09 UTC)

预报

该预报发布于6小时和30分钟前的10:39 UTC
预报有效从05日的 12点(UTC)到 05日的 17点(UTC)
风速15节,风向西转西北
能见度10公里或以上
少量云层高于3000英尺
成为
从 05日的 12点(UTC)到 05日的 15点(UTC)
风速18节,风向西转西北,有时为28节阵风
短暂存在
从 05日的 12点(UTC)到 05日的 17点(UTC)
能見度: 6000
阵雨
几率 30% :
短暂存在
从 05日的 12点(UTC)到 05日的 17点(UTC)
能見度: 4000
多云层高于2200英尺, 积雨云.
大阵雨

TAF: EGYD 051039Z 0512/0517 30015KT 9999 FEW030 BECMG 0512/0515 30018G28KT TEMPO 0512/0517 6000 SHRA PROB30 TEMPO 0512/0517 4000 +SHRA BKN022CB

超过4000个机场的气象观测和天气预报(METAR&TAF报告)。

可查询的气象台以黄色和红色小点在地图上表示。

将鼠标移到小点上方,可查看气象台名称。

然后点击查看天气观测和预报。

如需切换地图:点击带黑十字的绿色按钮放大地图;点击带横线的绿色按钮缩小地图;或者点击绿色箭头查看邻近地区的地图。


METAR-TAF: